sensor_id;sensor_type;location;lat;lon;timestamp;pressure;altitude;pressure_sealevel;temperature;humidity
55217;BME280;41086;46.736;15.666;2023-11-19T00:00:09;99046.53;;;8.18;55.02
55217;BME280;41086;46.736;15.666;2023-11-19T00:02:40;99045.16;;;8.28;54.71
55217;BME280;41086;46.736;15.666;2023-11-19T00:05:08;99050.34;;;8.30;55.35
55217;BME280;41086;46.736;15.666;2023-11-19T00:07:40;99047.31;;;8.37;54.80
55217;BME280;41086;46.736;15.666;2023-11-19T00:10:09;99051.72;;;8.19;54.75
55217;BME280;41086;46.736;15.666;2023-11-19T00:12:45;99050.72;;;8.22;55.08
55217;BME280;41086;46.736;15.666;2023-11-19T00:15:13;99039.03;;;8.09;55.02
55217;BME280;41086;46.736;15.666;2023-11-19T00:17:45;99028.00;;;8.00;55.08
55217;BME280;41086;46.736;15.666;2023-11-19T00:20:19;99027.00;;;8.03;55.49
55217;BME280;41086;46.736;15.666;2023-11-19T00:22:46;99037.28;;;8.09;55.41
55217;BME280;41086;46.736;15.666;2023-11-19T00:25:17;99036.97;;;8.15;55.72
55217;BME280;41086;46.736;15.666;2023-11-19T00:27:44;99038.19;;;8.08;56.15
55217;BME280;41086;46.736;15.666;2023-11-19T00:30:14;99029.75;;;8.02;56.59
55217;BME280;41086;46.736;15.666;2023-11-19T00:32:42;99030.44;;;8.05;56.52
55217;BME280;41086;46.736;15.666;2023-11-19T00:35:09;99028.09;;;7.99;56.64
55217;BME280;41086;46.736;15.666;2023-11-19T00:37:41;99022.50;;;7.88;56.71
55217;BME280;41086;46.736;15.666;2023-11-19T00:40:09;99025.06;;;7.89;56.88
55217;BME280;41086;46.736;15.666;2023-11-19T00:42:37;99025.31;;;7.85;57.18
55217;BME280;41086;46.736;15.666;2023-11-19T00:45:05;99033.44;;;7.80;57.19
55217;BME280;41086;46.736;15.666;2023-11-19T00:47:36;99031.59;;;7.82;57.34
55217;BME280;41086;46.736;15.666;2023-11-19T00:50:03;99029.84;;;7.81;57.43
55217;BME280;41086;46.736;15.666;2023-11-19T00:52:30;99038.03;;;7.94;57.37
55217;BME280;41086;46.736;15.666;2023-11-19T00:54:57;99040.22;;;8.03;57.53
55217;BME280;41086;46.736;15.666;2023-11-19T00:57:24;99022.13;;;7.95;57.76
55217;BME280;41086;46.736;15.666;2023-11-19T00:59:51;99009.47;;;7.85;57.96
55217;BME280;41086;46.736;15.666;2023-11-19T01:02:19;98998.75;;;7.88;58.53
55217;BME280;41086;46.736;15.666;2023-11-19T01:04:45;98994.38;;;7.87;58.61
55217;BME280;41086;46.736;15.666;2023-11-19T01:07:12;99000.38;;;8.08;58.32
55217;BME280;41086;46.736;15.666;2023-11-19T01:09:42;98982.44;;;7.97;58.49
55217;BME280;41086;46.736;15.666;2023-11-19T01:12:09;98986.41;;;8.06;58.74
55217;BME280;41086;46.736;15.666;2023-11-19T01:14:37;98973.16;;;8.07;58.41
55217;BME280;41086;46.736;15.666;2023-11-19T01:17:05;98967.19;;;8.04;58.83
55217;BME280;41086;46.736;15.666;2023-11-19T01:19:32;98952.25;;;8.03;58.66
55217;BME280;41086;46.736;15.666;2023-11-19T01:21:59;98940.69;;;8.05;59.29
55217;BME280;41086;46.736;15.666;2023-11-19T01:24:26;98961.03;;;8.03;59.18
55217;BME280;41086;46.736;15.666;2023-11-19T01:26:55;98955.28;;;8.12;59.28
55217;BME280;41086;46.736;15.666;2023-11-19T01:29:24;98943.16;;;8.08;59.02
55217;BME280;41086;46.736;15.666;2023-11-19T01:31:51;98949.06;;;8.13;59.13
55217;BME280;41086;46.736;15.666;2023-11-19T01:34:18;98957.28;;;8.25;59.92
55217;BME280;41086;46.736;15.666;2023-11-19T01:36:46;98958.69;;;8.32;59.51
55217;BME280;41086;46.736;15.666;2023-11-19T01:39:15;98954.94;;;8.36;60.02
55217;BME280;41086;46.736;15.666;2023-11-19T01:41:42;98948.63;;;8.40;60.17
55217;BME280;41086;46.736;15.666;2023-11-19T01:44:09;98940.63;;;8.41;60.46
55217;BME280;41086;46.736;15.666;2023-11-19T01:46:40;98915.97;;;8.41;60.93
55217;BME280;41086;46.736;15.666;2023-11-19T01:49:08;98918.72;;;8.39;61.11
55217;BME280;41086;46.736;15.666;2023-11-19T01:51:36;98907.84;;;8.28;62.14
55217;BME280;41086;46.736;15.666;2023-11-19T01:54:03;98916.94;;;8.38;62.71
55217;BME280;41086;46.736;15.666;2023-11-19T01:56:30;98905.50;;;8.39;63.12
55217;BME280;41086;46.736;15.666;2023-11-19T01:58:58;98893.47;;;8.16;63.51
55217;BME280;41086;46.736;15.666;2023-11-19T02:01:25;98885.47;;;8.00;64.08
55217;BME280;41086;46.736;15.666;2023-11-19T02:03:53;98870.34;;;7.87;64.43
55217;BME280;41086;46.736;15.666;2023-11-19T02:06:20;98869.84;;;7.80;64.42
55217;BME280;41086;46.736;15.666;2023-11-19T02:08:47;98867.72;;;7.87;64.79
55217;BME280;41086;46.736;15.666;2023-11-19T02:11:14;98874.25;;;7.80;64.76
55217;BME280;41086;46.736;15.666;2023-11-19T02:13:40;98880.13;;;6.77;68.54
55217;BME280;41086;46.736;15.666;2023-11-19T02:16:08;98885.03;;;6.85;69.52
55217;BME280;41086;46.736;15.666;2023-11-19T02:18:36;98877.19;;;6.64;72.26
55217;BME280;41086;46.736;15.666;2023-11-19T02:21:03;98875.00;;;6.74;70.57
55217;BME280;41086;46.736;15.666;2023-11-19T02:23:32;98873.81;;;6.81;70.19
55217;BME280;41086;46.736;15.666;2023-11-19T02:26:28;98873.22;;;6.94;70.14
55217;BME280;41086;46.736;15.666;2023-11-19T02:28:57;98866.84;;;7.17;68.82
55217;BME280;41086;46.736;15.666;2023-11-19T02:31:24;98862.34;;;7.19;67.76
55217;BME280;41086;46.736;15.666;2023-11-19T02:33:51;98856.22;;;7.18;68.59
55217;BME280;41086;46.736;15.666;2023-11-19T02:36:18;98847.47;;;7.18;67.31
55217;BME280;41086;46.736;15.666;2023-11-19T02:38:47;98855.56;;;7.13;67.70
55217;BME280;41086;46.736;15.666;2023-11-19T02:41:14;98837.59;;;7.04;69.57
55217;BME280;41086;46.736;15.666;2023-11-19T02:43:40;98836.44;;;7.09;70.39
55217;BME280;41086;46.736;15.666;2023-11-19T02:46:13;98830.94;;;7.14;70.04
55217;BME280;41086;46.736;15.666;2023-11-19T02:48:42;98819.63;;;7.12;68.09
55217;BME280;41086;46.736;15.666;2023-11-19T02:51:09;98834.56;;;6.75;72.79
55217;BME280;41086;46.736;15.666;2023-11-19T02:53:37;98827.25;;;6.44;78.75
55217;BME280;41086;46.736;15.666;2023-11-19T02:56:05;98832.06;;;6.53;79.77
55217;BME280;41086;46.736;15.666;2023-11-19T02:58:46;98827.16;;;6.46;80.92
55217;BME280;41086;46.736;15.666;2023-11-19T03:01:13;98829.09;;;6.23;84.04
55217;BME280;41086;46.736;15.666;2023-11-19T03:03:50;98821.63;;;6.33;80.14
55217;BME280;41086;46.736;15.666;2023-11-19T03:06:24;98812.75;;;6.54;78.80
55217;BME280;41086;46.736;15.666;2023-11-19T03:08:51;98810.84;;;6.75;77.84
55217;BME280;41086;46.736;15.666;2023-11-19T03:11:18;98798.66;;;6.92;77.36
55217;BME280;41086;46.736;15.666;2023-11-19T03:13:45;98794.31;;;7.08;76.69
55217;BME280;41086;46.736;15.666;2023-11-19T03:16:13;98791.25;;;7.17;76.67
55217;BME280;41086;46.736;15.666;2023-11-19T03:18:40;98795.28;;;7.24;75.40
55217;BME280;41086;46.736;15.666;2023-11-19T03:21:07;98785.66;;;7.23;72.49
55217;BME280;41086;46.736;15.666;2023-11-19T03:23:36;98772.50;;;7.23;72.83
55217;BME280;41086;46.736;15.666;2023-11-19T03:26:04;98775.53;;;7.33;72.02
55217;BME280;41086;46.736;15.666;2023-11-19T03:28:32;98767.69;;;7.31;70.71
55217;BME280;41086;46.736;15.666;2023-11-19T03:30:59;98756.88;;;7.19;71.70
55217;BME280;41086;46.736;15.666;2023-11-19T03:33:26;98761.63;;;7.12;72.63
55217;BME280;41086;46.736;15.666;2023-11-19T03:35:56;98762.84;;;7.05;74.08
55217;BME280;41086;46.736;15.666;2023-11-19T03:38:24;98768.06;;;7.24;72.02
55217;BME280;41086;46.736;15.666;2023-11-19T03:40:51;98776.06;;;7.22;70.30
55217;BME280;41086;46.736;15.666;2023-11-19T03:43:18;98763.16;;;6.99;70.63
55217;BME280;41086;46.736;15.666;2023-11-19T03:45:48;98765.19;;;6.94;71.64
55217;BME280;41086;46.736;15.666;2023-11-19T03:48:15;98753.88;;;7.09;71.40
55217;BME280;41086;46.736;15.666;2023-11-19T03:50:43;98759.78;;;7.14;70.38
55217;BME280;41086;46.736;15.666;2023-11-19T03:53:11;98758.69;;;7.01;73.38
55217;BME280;41086;46.736;15.666;2023-11-19T03:55:39;98754.38;;;6.81;77.80
55217;BME280;41086;46.736;15.666;2023-11-19T03:58:06;98741.31;;;6.97;77.70
55217;BME280;41086;46.736;15.666;2023-11-19T04:00:33;98739.06;;;7.06;76.55
55217;BME280;41086;46.736;15.666;2023-11-19T04:02:59;98741.31;;;6.97;76.79
55217;BME280;41086;46.736;15.666;2023-11-19T04:05:27;98746.81;;;6.92;78.37
55217;BME280;41086;46.736;15.666;2023-11-19T04:07:54;98735.06;;;6.63;79.89
55217;BME280;41086;46.736;15.666;2023-11-19T04:10:21;98729.22;;;6.56;80.51
55217;BME280;41086;46.736;15.666;2023-11-19T04:12:49;98742.56;;;6.53;81.23
55217;BME280;41086;46.736;15.666;2023-11-19T04:15:16;98740.00;;;6.52;82.35
55217;BME280;41086;46.736;15.666;2023-11-19T04:17:43;98740.22;;;6.47;83.40
55217;BME280;41086;46.736;15.666;2023-11-19T04:20:11;98731.13;;;6.35;83.92
55217;BME280;41086;46.736;15.666;2023-11-19T04:22:40;98734.13;;;6.28;85.26
55217;BME280;41086;46.736;15.666;2023-11-19T04:25:08;98729.91;;;6.24;84.63
55217;BME280;41086;46.736;15.666;2023-11-19T04:27:35;98730.25;;;6.35;84.89
55217;BME280;41086;46.736;15.666;2023-11-19T04:30:02;98725.25;;;6.11;85.94
55217;BME280;41086;46.736;15.666;2023-11-19T04:32:30;98716.13;;;5.99;87.29
55217;BME280;41086;46.736;15.666;2023-11-19T04:34:57;98715.66;;;5.90;86.41
55217;BME280;41086;46.736;15.666;2023-11-19T04:37:24;98713.97;;;6.08;86.41
55217;BME280;41086;46.736;15.666;2023-11-19T04:39:51;98712.28;;;6.26;85.87
55217;BME280;41086;46.736;15.666;2023-11-19T04:42:18;98715.06;;;6.59;83.12
55217;BME280;41086;46.736;15.666;2023-11-19T04:44:45;98699.66;;;6.32;82.20
55217;BME280;41086;46.736;15.666;2023-11-19T04:47:12;98701.72;;;6.44;82.46
55217;BME280;41086;46.736;15.666;2023-11-19T04:49:42;98695.97;;;6.36;81.82
55217;BME280;41086;46.736;15.666;2023-11-19T04:52:09;98704.28;;;6.46;82.50
55217;BME280;41086;46.736;15.666;2023-11-19T04:54:41;98703.41;;;6.82;81.11
55217;BME280;41086;46.736;15.666;2023-11-19T04:57:07;98714.91;;;6.62;80.19
55217;BME280;41086;46.736;15.666;2023-11-19T04:59:37;98701.31;;;6.71;79.83
55217;BME280;41086;46.736;15.666;2023-11-19T05:02:04;98704.78;;;6.89;77.75
55217;BME280;41086;46.736;15.666;2023-11-19T05:04:31;98714.31;;;6.57;79.65
55217;BME280;41086;46.736;15.666;2023-11-19T05:06:58;98704.31;;;6.81;78.47
55217;BME280;41086;46.736;15.666;2023-11-19T05:09:25;98667.84;;;6.91;76.41
55217;BME280;41086;46.736;15.666;2023-11-19T05:11:52;98700.84;;;7.15;75.81
55217;BME280;41086;46.736;15.666;2023-11-19T05:14:19;98694.34;;;7.22;73.62
55217;BME280;41086;46.736;15.666;2023-11-19T05:16:47;98684.09;;;7.33;73.50
55217;BME280;41086;46.736;15.666;2023-11-19T05:19:14;98673.53;;;7.33;72.49
55217;BME280;41086;46.736;15.666;2023-11-19T05:21:42;98681.19;;;7.38;71.75
55217;BME280;41086;46.736;15.666;2023-11-19T05:24:10;98677.34;;;7.28;71.09
55217;BME280;41086;46.736;15.666;2023-11-19T05:26:38;98656.66;;;7.20;71.48
55217;BME280;41086;46.736;15.666;2023-11-19T05:29:05;98646.13;;;7.03;72.55
55217;BME280;41086;46.736;15.666;2023-11-19T05:31:32;98667.28;;;7.19;70.70
55217;BME280;41086;46.736;15.666;2023-11-19T05:34:02;98661.44;;;6.79;74.34
55217;BME280;41086;46.736;15.666;2023-11-19T05:36:29;98645.91;;;6.90;72.41
55217;BME280;41086;46.736;15.666;2023-11-19T05:38:56;98641.81;;;6.84;72.72
55217;BME280;41086;46.736;15.666;2023-11-19T05:41:23;98654.06;;;6.85;72.52
55217;BME280;41086;46.736;15.666;2023-11-19T05:43:50;98660.25;;;6.84;72.73
55217;BME280;41086;46.736;15.666;2023-11-19T05:46:18;98647.63;;;6.91;73.02
55217;BME280;41086;46.736;15.666;2023-11-19T05:48:46;98662.97;;;6.83;71.82
55217;BME280;41086;46.736;15.666;2023-11-19T05:51:14;98657.19;;;6.40;75.83
55217;BME280;41086;46.736;15.666;2023-11-19T05:53:42;98669.97;;;6.30;77.83
55217;BME280;41086;46.736;15.666;2023-11-19T05:56:09;98669.88;;;6.13;78.50
55217;BME280;41086;46.736;15.666;2023-11-19T05:58:37;98682.84;;;5.98;79.36
55217;BME280;41086;46.736;15.666;2023-11-19T06:01:05;98664.13;;;5.86;81.56
55217;BME280;41086;46.736;15.666;2023-11-19T06:03:34;98652.28;;;5.96;78.94
55217;BME280;41086;46.736;15.666;2023-11-19T06:06:01;98654.09;;;5.75;81.25
55217;BME280;41086;46.736;15.666;2023-11-19T06:08:28;98634.13;;;5.71;80.99
55217;BME280;41086;46.736;15.666;2023-11-19T06:10:56;98629.66;;;5.73;80.95
55217;BME280;41086;46.736;15.666;2023-11-19T06:13:23;98630.66;;;5.89;80.23
55217;BME280;41086;46.736;15.666;2023-11-19T06:15:51;98626.66;;;5.62;82.16
55217;BME280;41086;46.736;15.666;2023-11-19T06:18:18;98615.72;;;5.90;82.01
55217;BME280;41086;46.736;15.666;2023-11-19T06:20:47;98605.03;;;6.12;80.09
55217;BME280;41086;46.736;15.666;2023-11-19T06:23:14;98599.03;;;6.27;79.26
55217;BME280;41086;46.736;15.666;2023-11-19T06:25:41;98598.25;;;6.25;79.17
55217;BME280;41086;46.736;15.666;2023-11-19T06:28:08;98599.56;;;6.51;78.11
55217;BME280;41086;46.736;15.666;2023-11-19T06:30:35;98607.41;;;6.35;76.07
55217;BME280;41086;46.736;15.666;2023-11-19T06:33:02;98602.88;;;6.03;79.23
55217;BME280;41086;46.736;15.666;2023-11-19T06:35:30;98599.41;;;6.19;79.15
55217;BME280;41086;46.736;15.666;2023-11-19T06:38:03;98596.00;;;6.17;79.33
55217;BME280;41086;46.736;15.666;2023-11-19T06:40:34;98611.78;;;6.17;79.00
55217;BME280;41086;46.736;15.666;2023-11-19T06:43:04;98611.25;;;5.92;80.35
55217;BME280;41086;46.736;15.666;2023-11-19T06:45:31;98623.97;;;5.63;82.99
55217;BME280;41086;46.736;15.666;2023-11-19T06:48:01;98630.69;;;5.31;85.66
55217;BME280;41086;46.736;15.666;2023-11-19T06:50:30;98632.13;;;5.38;87.03
55217;BME280;41086;46.736;15.666;2023-11-19T06:52:57;98627.78;;;5.37;86.44
55217;BME280;41086;46.736;15.666;2023-11-19T06:55:26;98620.13;;;5.51;85.01
55217;BME280;41086;46.736;15.666;2023-11-19T06:57:53;98624.91;;;5.81;83.49
55217;BME280;41086;46.736;15.666;2023-11-19T07:00:20;98607.66;;;5.94;81.54
55217;BME280;41086;46.736;15.666;2023-11-19T07:02:47;98601.69;;;6.44;80.60
55217;BME280;41086;46.736;15.666;2023-11-19T07:05:14;98609.81;;;6.75;78.43
55217;BME280;41086;46.736;15.666;2023-11-19T07:07:41;98615.38;;;6.86;75.46
55217;BME280;41086;46.736;15.666;2023-11-19T07:10:08;98606.63;;;6.85;76.58
55217;BME280;41086;46.736;15.666;2023-11-19T07:12:36;98627.47;;;6.90;75.35
55217;BME280;41086;46.736;15.666;2023-11-19T07:15:04;98617.00;;;6.54;77.20
55217;BME280;41086;46.736;15.666;2023-11-19T07:17:31;98630.31;;;6.51;79.89
55217;BME280;41086;46.736;15.666;2023-11-19T07:19:58;98623.94;;;6.20;81.31
55217;BME280;41086;46.736;15.666;2023-11-19T07:22:26;98638.06;;;6.36;80.74
55217;BME280;41086;46.736;15.666;2023-11-19T07:24:56;98648.13;;;6.46;80.19
55217;BME280;41086;46.736;15.666;2023-11-19T07:27:23;98647.69;;;6.18;79.92
55217;BME280;41086;46.736;15.666;2023-11-19T07:29:51;98655.97;;;6.11;80.71
55217;BME280;41086;46.736;15.666;2023-11-19T07:32:18;98649.78;;;6.12;82.36
55217;BME280;41086;46.736;15.666;2023-11-19T07:34:45;98644.38;;;5.96;84.04
55217;BME280;41086;46.736;15.666;2023-11-19T07:37:12;98650.41;;;6.17;84.03
55217;BME280;41086;46.736;15.666;2023-11-19T07:39:39;98645.03;;;6.37;83.43
55217;BME280;41086;46.736;15.666;2023-11-19T07:42:08;98636.38;;;6.35;83.20
55217;BME280;41086;46.736;15.666;2023-11-19T07:44:36;98624.63;;;6.24;81.57
55217;BME280;41086;46.736;15.666;2023-11-19T07:47:04;98609.56;;;6.27;81.77
55217;BME280;41086;46.736;15.666;2023-11-19T07:49:31;98595.56;;;6.44;80.12
55217;BME280;41086;46.736;15.666;2023-11-19T07:51:59;98597.34;;;6.61;78.09
55217;BME280;41086;46.736;15.666;2023-11-19T07:54:26;98589.31;;;6.97;77.24
55217;BME280;41086;46.736;15.666;2023-11-19T07:56:53;98560.81;;;7.21;76.39
55217;BME280;41086;46.736;15.666;2023-11-19T07:59:21;98563.25;;;7.42;73.05
55217;BME280;41086;46.736;15.666;2023-11-19T08:01:48;98558.59;;;7.63;72.40
55217;BME280;41086;46.736;15.666;2023-11-19T08:04:15;98552.03;;;7.70;71.04
55217;BME280;41086;46.736;15.666;2023-11-19T08:06:42;98545.91;;;7.85;71.10
55217;BME280;41086;46.736;15.666;2023-11-19T08:09:10;98554.84;;;7.83;70.04
55217;BME280;41086;46.736;15.666;2023-11-19T08:11:41;98592.72;;;7.66;70.84
55217;BME280;41086;46.736;15.666;2023-11-19T08:14:08;98611.56;;;6.92;73.00
55217;BME280;41086;46.736;15.666;2023-11-19T08:16:35;98604.78;;;6.70;78.50
55217;BME280;41086;46.736;15.666;2023-11-19T08:19:03;98592.09;;;6.43;81.57
55217;BME280;41086;46.736;15.666;2023-11-19T08:21:29;98601.22;;;6.36;80.58
55217;BME280;41086;46.736;15.666;2023-11-19T08:23:56;98599.50;;;5.99;82.74
55217;BME280;41086;46.736;15.666;2023-11-19T08:26:23;98589.28;;;6.29;83.02
55217;BME280;41086;46.736;15.666;2023-11-19T08:28:50;98594.31;;;6.51;83.37
55217;BME280;41086;46.736;15.666;2023-11-19T08:31:18;98575.66;;;6.56;83.45
55217;BME280;41086;46.736;15.666;2023-11-19T08:33:45;98566.66;;;6.42;81.89
55217;BME280;41086;46.736;15.666;2023-11-19T08:36:16;98588.47;;;6.46;83.64
55217;BME280;41086;46.736;15.666;2023-11-19T08:38:43;98590.69;;;6.36;81.16
55217;BME280;41086;46.736;15.666;2023-11-19T08:41:10;98572.56;;;6.65;83.86
55217;BME280;41086;46.736;15.666;2023-11-19T08:43:37;98552.59;;;6.94;79.80
55217;BME280;41086;46.736;15.666;2023-11-19T08:46:09;98578.31;;;7.06;79.18
55217;BME280;41086;46.736;15.666;2023-11-19T08:48:36;98584.41;;;6.74;78.95
55217;BME280;41086;46.736;15.666;2023-11-19T08:51:03;98582.66;;;6.57;80.69
55217;BME280;41086;46.736;15.666;2023-11-19T08:53:31;98555.59;;;6.71;80.04
55217;BME280;41086;46.736;15.666;2023-11-19T08:55:57;98582.53;;;6.76;79.06
55217;BME280;41086;46.736;15.666;2023-11-19T08:58:24;98575.91;;;6.69;78.73
55217;BME280;41086;46.736;15.666;2023-11-19T09:00:51;98583.16;;;6.81;79.73
55217;BME280;41086;46.736;15.666;2023-11-19T09:03:18;98583.16;;;6.81;79.00
55217;BME280;41086;46.736;15.666;2023-11-19T09:05:45;98571.88;;;7.12;76.27
55217;BME280;41086;46.736;15.666;2023-11-19T09:08:12;98569.97;;;7.95;74.91
55217;BME280;41086;46.736;15.666;2023-11-19T09:10:39;98579.72;;;8.09;71.99
55217;BME280;41086;46.736;15.666;2023-11-19T09:13:06;98560.94;;;8.15;70.27
55217;BME280;41086;46.736;15.666;2023-11-19T09:15:32;98560.53;;;8.37;71.24
55217;BME280;41086;46.736;15.666;2023-11-19T09:17:59;98550.97;;;8.20;70.04
55217;BME280;41086;46.736;15.666;2023-11-19T09:20:26;98553.38;;;8.69;68.12
55217;BME280;41086;46.736;15.666;2023-11-19T09:22:53;98544.63;;;8.69;67.91
55217;BME280;41086;46.736;15.666;2023-11-19T09:25:20;98536.50;;;9.00;68.58
55217;BME280;41086;46.736;15.666;2023-11-19T09:27:47;98538.50;;;9.40;64.21
55217;BME280;41086;46.736;15.666;2023-11-19T09:30:14;98535.00;;;9.39;63.38
55217;BME280;41086;46.736;15.666;2023-11-19T09:32:41;98534.25;;;9.37;61.52
55217;BME280;41086;46.736;15.666;2023-11-19T09:35:08;98548.88;;;9.14;64.17
55217;BME280;41086;46.736;15.666;2023-11-19T09:37:35;98540.75;;;8.88;65.38
55217;BME280;41086;46.736;15.666;2023-11-19T09:40:02;98546.94;;;8.59;65.98
55217;BME280;41086;46.736;15.666;2023-11-19T09:42:32;98533.91;;;8.56;65.53
55217;BME280;41086;46.736;15.666;2023-11-19T09:45:04;98528.03;;;8.20;66.79
55217;BME280;41086;46.736;15.666;2023-11-19T09:47:32;98516.44;;;8.39;67.11
55217;BME280;41086;46.736;15.666;2023-11-19T09:49:59;98513.84;;;8.68;65.28
55217;BME280;41086;46.736;15.666;2023-11-19T09:52:26;98501.69;;;8.94;64.21
55217;BME280;41086;46.736;15.666;2023-11-19T09:54:53;98491.38;;;9.18;63.81
55217;BME280;41086;46.736;15.666;2023-11-19T09:57:20;98509.50;;;9.24;62.45
55217;BME280;41086;46.736;15.666;2023-11-19T09:59:47;98515.53;;;9.40;62.00
55217;BME280;41086;46.736;15.666;2023-11-19T10:02:14;98516.97;;;8.88;63.81
55217;BME280;41086;46.736;15.666;2023-11-19T10:04:42;98515.16;;;8.75;66.72
55217;BME280;41086;46.736;15.666;2023-11-19T10:07:11;98502.91;;;9.31;65.66
55217;BME280;41086;46.736;15.666;2023-11-19T10:09:38;98478.38;;;9.42;62.65
55217;BME280;41086;46.736;15.666;2023-11-19T10:12:05;98466.13;;;9.95;62.86
55217;BME280;41086;46.736;15.666;2023-11-19T10:14:34;98477.16;;;10.29;61.16
55217;BME280;41086;46.736;15.666;2023-11-19T10:17:07;98479.00;;;10.27;60.25
55217;BME280;41086;46.736;15.666;2023-11-19T10:19:34;98457.66;;;10.30;57.88
55217;BME280;41086;46.736;15.666;2023-11-19T10:22:05;98441.31;;;11.00;58.09
55217;BME280;41086;46.736;15.666;2023-11-19T10:24:32;98425.22;;;11.75;55.25
55217;BME280;41086;46.736;15.666;2023-11-19T10:27:01;98421.63;;;12.58;53.86
55217;BME280;41086;46.736;15.666;2023-11-19T10:29:29;98410.63;;;13.30;50.90
55217;BME280;41086;46.736;15.666;2023-11-19T10:31:57;98408.59;;;13.98;48.77
55217;BME280;41086;46.736;15.666;2023-11-19T10:34:44;98396.50;;;14.57;46.50
55217;BME280;41086;46.736;15.666;2023-11-19T10:37:29;98405.28;;;14.69;45.25
55217;BME280;41086;46.736;15.666;2023-11-19T10:40:02;98404.00;;;14.52;45.19
55217;BME280;41086;46.736;15.666;2023-11-19T10:42:31;98392.66;;;14.29;45.42
55217;BME280;41086;46.736;15.666;2023-11-19T10:44:58;98383.19;;;14.15;45.48
55217;BME280;41086;46.736;15.666;2023-11-19T10:47:25;98397.22;;;13.96;45.46
55217;BME280;41086;46.736;15.666;2023-11-19T10:49:55;98378.13;;;13.59;45.64
55217;BME280;41086;46.736;15.666;2023-11-19T10:52:23;98374.91;;;13.33;46.03
55217;BME280;41086;46.736;15.666;2023-11-19T10:54:50;98386.69;;;13.07;46.21
55217;BME280;41086;46.736;15.666;2023-11-19T10:57:20;98384.75;;;13.09;46.07
55217;BME280;41086;46.736;15.666;2023-11-19T10:59:55;98391.78;;;13.86;47.90
55217;BME280;41086;46.736;15.666;2023-11-19T11:02:27;98384.94;;;14.47;44.07
55217;BME280;41086;46.736;15.666;2023-11-19T11:04:55;98382.13;;;14.69;42.52
55217;BME280;41086;46.736;15.666;2023-11-19T11:07:22;98364.13;;;15.02;42.27
55217;BME280;41086;46.736;15.666;2023-11-19T11:10:06;98367.88;;;14.38;42.27
55217;BME280;41086;46.736;15.666;2023-11-19T11:12:36;98360.00;;;14.57;43.49
55217;BME280;41086;46.736;15.666;2023-11-19T11:15:05;98369.44;;;14.61;42.96
55217;BME280;41086;46.736;15.666;2023-11-19T11:17:33;98369.25;;;13.69;43.91
55217;BME280;41086;46.736;15.666;2023-11-19T11:20:01;98353.94;;;12.39;46.24
55217;BME280;41086;46.736;15.666;2023-11-19T11:22:40;98355.16;;;12.58;47.55
55217;BME280;41086;46.736;15.666;2023-11-19T11:28:28;98348.53;;;13.94;44.77
55217;BME280;41086;46.736;15.666;2023-11-19T11:31:23;98345.22;;;14.74;43.59
55217;BME280;41086;46.736;15.666;2023-11-19T11:39:22;98349.31;;;15.58;40.71
55217;BME280;41086;46.736;15.666;2023-11-19T11:50:19;98326.41;;;16.88;39.07
55217;BME280;41086;46.736;15.666;2023-11-19T11:55:36;98337.03;;;16.70;38.64
55217;BME280;41086;46.736;15.666;2023-11-19T11:58:05;98346.22;;;16.11;39.03
55217;BME280;41086;46.736;15.666;2023-11-19T12:00:33;98330.88;;;15.25;40.56
55217;BME280;41086;46.736;15.666;2023-11-19T12:03:05;98328.66;;;15.89;40.45
55217;BME280;41086;46.736;15.666;2023-11-19T12:05:32;98331.00;;;16.21;39.43
55217;BME280;41086;46.736;15.666;2023-11-19T12:08:03;98330.56;;;16.26;38.66
55217;BME280;41086;46.736;15.666;2023-11-19T12:10:51;98326.75;;;16.28;38.70
55217;BME280;41086;46.736;15.666;2023-11-19T12:13:20;98309.84;;;16.37;39.37
55217;BME280;41086;46.736;15.666;2023-11-19T12:18:27;98303.72;;;16.55;39.21
55217;BME280;41086;46.736;15.666;2023-11-19T12:20:55;98304.97;;;16.23;39.34
55217;BME280;41086;46.736;15.666;2023-11-19T12:23:22;98306.91;;;16.68;39.98
55217;BME280;41086;46.736;15.666;2023-11-19T12:25:49;98311.94;;;16.71;39.18
55217;BME280;41086;46.736;15.666;2023-11-19T12:28:17;98312.84;;;16.62;39.97
55217;BME280;41086;46.736;15.666;2023-11-19T12:30:44;98302.31;;;16.88;40.11
55217;BME280;41086;46.736;15.666;2023-11-19T12:33:12;98286.78;;;17.19;39.64
55217;BME280;41086;46.736;15.666;2023-11-19T12:35:40;98280.50;;;17.46;38.90
55217;BME280;41086;46.736;15.666;2023-11-19T12:38:07;98280.44;;;16.65;38.22
55217;BME280;41086;46.736;15.666;2023-11-19T12:40:34;98279.97;;;16.79;39.16
55217;BME280;41086;46.736;15.666;2023-11-19T12:43:01;98276.44;;;16.79;39.13
55217;BME280;41086;46.736;15.666;2023-11-19T12:45:37;98277.78;;;16.93;39.54
55217;BME280;41086;46.736;15.666;2023-11-19T12:48:06;98266.69;;;16.88;40.53
55217;BME280;41086;46.736;15.666;2023-11-19T12:50:52;98270.47;;;17.31;39.12
55217;BME280;41086;46.736;15.666;2023-11-19T12:53:21;98265.88;;;17.41;37.72
55217;BME280;41086;46.736;15.666;2023-11-19T12:55:48;98274.38;;;17.54;38.04
55217;BME280;41086;46.736;15.666;2023-11-19T12:58:48;98267.59;;;17.86;38.02
55217;BME280;41086;46.736;15.666;2023-11-19T13:01:19;98265.09;;;17.84;37.69
55217;BME280;41086;46.736;15.666;2023-11-19T13:03:47;98261.75;;;18.08;37.53
55217;BME280;41086;46.736;15.666;2023-11-19T13:06:16;98254.81;;;17.98;37.16
55217;BME280;41086;46.736;15.666;2023-11-19T13:08:48;98272.34;;;18.18;36.87
55217;BME280;41086;46.736;15.666;2023-11-19T13:11:34;98276.44;;;18.30;36.93
55217;BME280;41086;46.736;15.666;2023-11-19T13:14:03;98272.44;;;18.34;36.10
55217;BME280;41086;46.736;15.666;2023-11-19T13:16:38;98264.78;;;18.48;36.55
55217;BME280;41086;46.736;15.666;2023-11-19T13:19:06;98263.28;;;18.45;35.88
55217;BME280;41086;46.736;15.666;2023-11-19T13:21:33;98272.56;;;18.59;36.95
55217;BME280;41086;46.736;15.666;2023-11-19T13:24:00;98270.03;;;18.92;36.53
55217;BME280;41086;46.736;15.666;2023-11-19T13:26:27;98263.22;;;19.06;36.04